AGROMETEOROLOŠKI PORTAL

vinorodna pokrajina

Temelj dobrega kmetovanja

Pregled podatkov za lokacijo Dragonja, meteorološka postaja 42389

Pregled senzorjev na lokaciji

ID Ime Zadnja
vrednost
Datum in čas
meritve
(lokalni čas)
Tip
senzorja
4389 Omočenost lista (1,5 m) (U) 10 U 6.10.2022 06:30 A730WET
5053 Padavine (mm) 0 mm 6.10.2022 06:30 Generic 0.2 mm
2096 Relativna zračna vlaga (2 m) (%RH) 97 %RH 6.10.2022 06:30 50YA
2095 Temperatura (2 m) (°C) 14,1 °C 6.10.2022 06:30 50YA

Pregled podatkov zadnjih 24 ur

Zap.
št.
Datum in čas
(lokalni čas)
Dragonja
Omočenost
lista
(1,5
m)
Padavine Relativna
zračna
vlaga
(2
m)
Temperatura
(2
m)
1 6.10.2022 06:30 10 0 97,2 14,1
2 6.10.2022 06:00 10 0 97,7 13,9
3 6.10.2022 05:30 10 0 98,1 13,6
4 6.10.2022 05:00 10 0 98,2 13,4
5 6.10.2022 04:30 10 0 98,4 13,2
6 6.10.2022 04:00 10 0 98,5 13
7 6.10.2022 03:30 10 0 98,5 12,9
8 6.10.2022 03:00 10 0 98,6 12,9
9 6.10.2022 02:30 10 0 98,7 12,8
10 6.10.2022 02:00 10 0 98,7 12,5
11 6.10.2022 01:30 10 0 98,6 12,2
12 6.10.2022 01:00 10 0 98,6 12,4
13 6.10.2022 00:30 10 0 98,5 12,5
14 6.10.2022 00:00 10 0 98,4 12,5
15 5.10.2022 23:30 10 0 98,1 12,6
16 5.10.2022 23:00 10 0 97,9 13
17 5.10.2022 22:30 10 0 97,7 13,4
18 5.10.2022 22:00 10 0 97,5 13,6
19 5.10.2022 21:30 10 0 97 14
20 5.10.2022 21:00 10 0 96,6 14,3
21 5.10.2022 20:30 10 0 96 14,7
22 5.10.2022 20:00 10 0 95 15,2
23 5.10.2022 19:30 10 0 93,4 15,9
24 5.10.2022 19:00 10 0 87,2 17,4
25 5.10.2022 18:30 3 0 81,3 18,7
26 5.10.2022 18:00 1 0 75,3 20,2
27 5.10.2022 17:30 0 0 73,6 20,7
28 5.10.2022 17:00 0 0 73,5 21
29 5.10.2022 16:30 0 0 72,9 20,9
30 5.10.2022 16:00 0 0 70,8 20,9
31 5.10.2022 15:30 0 0 73,2 20,7
32 5.10.2022 15:00 0 0 75,3 20,4
33 5.10.2022 14:30 0 0 72,9 20,6
34 5.10.2022 14:00 0 0 71,5 20,8
35 5.10.2022 13:30 0 0 69,2 21,6
36 5.10.2022 13:00 0 0 68,2 21,6
37 5.10.2022 12:30 0 0 71,5 20,9
38 5.10.2022 12:00 0 0 70,4 21,1
39 5.10.2022 11:30 0 0 69,1 21,3
40 5.10.2022 11:00 0 0 70 21,3
41 5.10.2022 10:30 1 0 78,9 19,3
42 5.10.2022 10:00 3 0 83,3 17,3
43 5.10.2022 09:30 10 0 89,4 15
44 5.10.2022 09:00 10 0 93,8 13,3
45 5.10.2022 08:30 10 0 98,1 11,9